createdAt,value
2018-06-08T00:01:41.110Z,100066.89
2018-06-08T00:04:09.953Z,100066.35
2018-06-08T00:06:38.678Z,100072.28
2018-06-08T00:09:09.214Z,100070.09
2018-06-08T00:11:37.968Z,100068.56
2018-06-08T00:14:06.710Z,100072.64
2018-06-08T00:16:35.494Z,100079.64
2018-06-08T00:19:04.213Z,100078.05
2018-06-08T00:21:32.943Z,100076.39
2018-06-08T00:24:01.699Z,100082.02
2018-06-08T00:26:30.457Z,100073.89
2018-06-08T00:28:59.168Z,100076.05
2018-06-08T00:31:28.000Z,100070.87
2018-06-08T00:33:56.731Z,100073.28
2018-06-08T00:36:25.517Z,100074.14
2018-06-08T00:38:54.274Z,100065.20
2018-06-08T00:41:23.013Z,100054.89
2018-06-08T00:43:51.739Z,100056.47
2018-06-08T00:46:20.501Z,100061.05
2018-06-08T00:48:49.229Z,100065.39
2018-06-08T00:51:17.998Z,100061.00
2018-06-08T00:53:46.762Z,100061.33
2018-06-08T00:56:26.594Z,100060.72
2018-06-08T00:58:55.345Z,100063.92
2018-06-08T01:01:24.067Z,100053.05
2018-06-08T01:03:52.795Z,100050.03
2018-06-08T01:06:21.522Z,100056.88
2018-06-08T01:08:50.318Z,100055.30
2018-06-08T01:11:19.054Z,100061.47
2018-06-08T01:13:47.851Z,100058.16
2018-06-08T01:16:16.566Z,100055.61
2018-06-08T01:18:45.282Z,100061.55
2018-06-08T01:21:14.192Z,100064.73
2018-06-08T01:23:42.894Z,100060.87
2018-06-08T01:26:11.623Z,100062.98
2018-06-08T01:28:40.441Z,100062.44
2018-06-08T01:31:09.142Z,100058.09
2018-06-08T01:33:37.852Z,100061.55
2018-06-08T01:36:06.703Z,100058.27
2018-06-08T01:38:35.401Z,100059.31
2018-06-08T01:41:04.139Z,100061.02
2018-06-08T01:43:32.887Z,100064.52
2018-06-08T01:46:01.614Z,100067.79
2018-06-08T01:48:30.329Z,100062.89
2018-06-08T01:50:59.081Z,100066.95
2018-06-08T01:53:27.892Z,100066.69
2018-06-08T01:55:56.618Z,100068.59
2018-06-08T01:58:25.425Z,100073.80
2018-06-08T02:00:54.180Z,100069.94
2018-06-08T02:03:22.926Z,100057.20
2018-06-08T02:05:51.694Z,100059.58
2018-06-08T02:08:20.423Z,100060.98
2018-06-08T02:10:49.141Z,100065.79
2018-06-08T02:13:17.910Z,100069.52
2018-06-08T02:15:46.709Z,100070.84
2018-06-08T02:18:15.485Z,100075.31
2018-06-08T02:20:44.262Z,100076.09
2018-06-08T02:23:13.033Z,100075.83
2018-06-08T02:25:41.733Z,100074.20
2018-06-08T02:28:10.540Z,100080.36
2018-06-08T02:30:39.246Z,100086.23
2018-06-08T02:33:08.002Z,100086.69
2018-06-08T02:35:36.769Z,100088.02
2018-06-08T02:38:05.519Z,100088.66
2018-06-08T02:40:34.241Z,100089.12
2018-06-08T02:43:02.973Z,100088.37
2018-06-08T02:45:31.693Z,100086.16
2018-06-08T02:48:00.397Z,100092.59
2018-06-08T02:50:29.171Z,100088.20
2018-06-08T02:52:57.870Z,100093.78
2018-06-08T02:55:26.574Z,100103.59
2018-06-08T02:57:55.311Z,100096.23
2018-06-08T03:00:24.020Z,100102.75
2018-06-08T03:02:52.746Z,100093.33
2018-06-08T03:05:21.492Z,100091.83
2018-06-08T03:07:50.209Z,100096.78
2018-06-08T03:10:18.929Z,100074.41
2018-06-08T03:12:47.923Z,100103.70
2018-06-08T03:15:16.754Z,100105.19
2018-06-08T03:17:45.678Z,100104.70
2018-06-08T03:20:14.596Z,100107.36
2018-06-08T03:22:43.293Z,100107.14
2018-06-08T03:25:12.008Z,100106.50
2018-06-08T03:27:40.720Z,100104.46
2018-06-08T03:30:09.485Z,100111.16
2018-06-08T03:32:38.187Z,100104.50
2018-06-08T03:35:06.928Z,100095.16
2018-06-08T03:37:35.781Z,100091.42
2018-06-08T03:40:04.518Z,100089.66
2018-06-08T03:42:33.249Z,100085.72
2018-06-08T03:45:01.950Z,100090.86
2018-06-08T03:47:30.697Z,100087.35
2018-06-08T03:49:59.441Z,100088.09
2018-06-08T03:52:28.170Z,100094.50
2018-06-08T03:54:56.896Z,100095.53
2018-06-08T03:57:25.742Z,100096.39
2018-06-08T03:59:54.473Z,100096.92
2018-06-08T04:02:23.256Z,100093.14
2018-06-08T04:04:52.013Z,100091.98
2018-06-08T04:07:20.742Z,100086.13
2018-06-08T04:09:49.460Z,100085.17
2018-06-08T04:12:18.227Z,100088.42
2018-06-08T04:14:47.175Z,100090.30
2018-06-08T04:17:15.898Z,100098.25
2018-06-08T04:19:44.642Z,100096.89
2018-06-08T04:22:13.355Z,100094.75
2018-06-08T04:24:42.079Z,100098.06
2018-06-08T04:27:10.847Z,100097.64
2018-06-08T04:29:39.670Z,100093.43
2018-06-08T04:32:08.374Z,100085.44
2018-06-08T04:34:37.120Z,100089.80
2018-06-08T04:37:05.873Z,100085.70
2018-06-08T04:39:34.658Z,100089.02
2018-06-08T04:42:03.401Z,100083.97
2018-06-08T04:44:32.106Z,100084.28
2018-06-08T04:47:00.803Z,100082.35
2018-06-08T04:49:29.637Z,100089.40
2018-06-08T04:51:58.356Z,100086.05
2018-06-08T04:54:27.065Z,100079.84
2018-06-08T04:56:55.814Z,100081.92
2018-06-08T04:59:24.513Z,100079.03
2018-06-08T05:01:53.233Z,100078.69
2018-06-08T05:04:21.998Z,100089.05
2018-06-08T05:06:50.719Z,100078.44
2018-06-08T05:09:19.509Z,100081.50
2018-06-08T05:11:48.236Z,100076.34
2018-06-08T05:14:17.070Z,100080.28
2018-06-08T05:16:45.781Z,100078.95
2018-06-08T05:19:14.528Z,100087.17
2018-06-08T05:21:43.372Z,100078.84
2018-06-08T05:24:12.083Z,100086.84
2018-06-08T05:26:40.821Z,100085.08
2018-06-08T05:29:09.552Z,100093.71
2018-06-08T05:31:38.277Z,100089.52
2018-06-08T05:34:07.045Z,100085.88
2018-06-08T05:36:35.757Z,100088.83
2018-06-08T05:39:07.109Z,100096.53
2018-06-08T05:41:36.044Z,100084.31
2018-06-08T05:44:04.754Z,100086.71
2018-06-08T05:46:33.521Z,100079.11
2018-06-08T05:49:02.294Z,100072.10
2018-06-08T05:51:31.017Z,100077.64
2018-06-08T05:53:59.763Z,100079.02
2018-06-08T05:56:28.473Z,100078.31
2018-06-08T05:58:57.204Z,100076.23
2018-06-08T06:01:25.994Z,100078.07
2018-06-08T06:03:54.708Z,100075.86
2018-06-08T06:06:23.430Z,100073.41
2018-06-08T06:08:52.183Z,100068.84
2018-06-08T06:11:20.906Z,100070.27
2018-06-08T06:13:49.650Z,100071.80
2018-06-08T06:16:18.440Z,100068.91
2018-06-08T06:18:47.170Z,100073.95
2018-06-08T06:21:15.919Z,100077.62
2018-06-08T06:23:44.652Z,100074.91
2018-06-08T06:26:13.368Z,100077.12
2018-06-08T06:28:42.122Z,100076.31
2018-06-08T06:31:11.189Z,100081.09
2018-06-08T06:33:39.912Z,100079.45
2018-06-08T06:36:08.627Z,100081.83
2018-06-08T06:38:37.370Z,100081.77
2018-06-08T06:41:06.057Z,100080.34
2018-06-08T06:43:34.763Z,100083.53
2018-06-08T06:46:03.506Z,100080.08
2018-06-08T06:48:32.213Z,100081.22
2018-06-08T06:51:01.931Z,100081.56
2018-06-08T06:53:30.650Z,100078.05
2018-06-08T06:55:59.349Z,100075.55
2018-06-08T06:58:28.045Z,100059.18
2018-06-08T07:00:56.846Z,100060.80
2018-06-08T07:03:25.522Z,100061.78
2018-06-08T07:05:54.201Z,100058.84
2018-06-08T07:08:23.335Z,100054.10
2018-06-08T07:10:52.280Z,100051.61
2018-06-08T07:13:21.040Z,100042.64
2018-06-08T07:15:49.798Z,100047.91
2018-06-08T07:18:18.520Z,100042.75
2018-06-08T07:20:47.244Z,100041.59
2018-06-08T07:23:16.055Z,100044.23
2018-06-08T07:25:44.799Z,100038.87
2018-06-08T07:28:13.553Z,100042.94
2018-06-08T07:30:42.287Z,100040.56
2018-06-08T07:33:11.006Z,100042.25
2018-06-08T07:35:39.719Z,100041.50
2018-06-08T07:38:08.474Z,100033.95
2018-06-08T07:40:37.178Z,100038.55
2018-06-08T07:43:05.902Z,100031.41
2018-06-08T07:45:34.644Z,100022.67
2018-06-08T07:48:03.374Z,100023.17
2018-06-08T07:50:32.125Z,100027.36
2018-06-08T07:53:00.975Z,100028.10
2018-06-08T07:55:29.710Z,100029.12
2018-06-08T07:57:58.435Z,100027.98
2018-06-08T08:00:27.217Z,100028.13
2018-06-08T08:02:55.959Z,100021.84
2018-06-08T08:05:24.712Z,100020.01
2018-06-08T08:07:53.505Z,100021.48
2018-06-08T08:10:22.256Z,100023.79
2018-06-08T08:12:51.006Z,100016.33
2018-06-08T08:15:19.830Z,100022.16
2018-06-08T08:17:48.542Z,100025.55
2018-06-08T08:20:17.243Z,100015.18
2018-06-08T08:22:45.966Z,100018.39
2018-06-08T08:25:14.713Z,100017.17
2018-06-08T08:27:43.402Z,100013.68
2018-06-08T08:30:12.302Z,100007.29
2018-06-08T08:32:40.994Z,100008.11
2018-06-08T08:35:09.782Z,100019.77
2018-06-08T08:37:38.531Z,100017.70
2018-06-08T08:40:07.253Z,100015.90
2018-06-08T08:42:35.979Z,100015.81
2018-06-08T08:45:04.816Z,100004.05
2018-06-08T08:47:34.416Z,100005.34
2018-06-08T08:50:03.109Z,99999.64
2018-06-08T08:52:31.843Z,99994.62
2018-06-08T08:55:00.586Z,99991.63
2018-06-08T08:57:29.291Z,99995.58
2018-06-08T08:59:58.006Z,99999.33
2018-06-08T09:02:26.694Z,99995.83
2018-06-08T09:04:55.408Z,99997.74
2018-06-08T09:07:24.142Z,99990.86
2018-06-08T09:09:52.837Z,99988.33
2018-06-08T09:12:21.532Z,99988.80
2018-06-08T09:14:50.270Z,99981.39
2018-06-08T09:17:18.970Z,99975.36
2018-06-08T09:19:47.688Z,99971.74
2018-06-08T09:22:16.422Z,99968.41
2018-06-08T09:24:45.105Z,99962.84
2018-06-08T09:27:13.794Z,99957.88
2018-06-08T09:29:42.543Z,99964.13
2018-06-08T09:32:11.336Z,99966.00
2018-06-08T09:34:40.030Z,99964.02
2018-06-08T09:37:08.761Z,99958.25
2018-06-08T09:39:37.456Z,99960.70
2018-06-08T09:42:06.246Z,99960.03
2018-06-08T09:44:35.041Z,99954.27
2018-06-08T09:47:03.762Z,99948.41
2018-06-08T09:49:32.650Z,99949.20
2018-06-08T09:52:01.394Z,99960.84
2018-06-08T09:54:30.123Z,99949.63
2018-06-08T09:56:58.829Z,99949.76
2018-06-08T09:59:27.561Z,99951.98
2018-06-08T10:01:56.269Z,99945.66
2018-06-08T10:04:25.041Z,99944.91
2018-06-08T10:06:53.770Z,99947.36
2018-06-08T10:09:22.487Z,99946.88
2018-06-08T10:11:51.223Z,99950.40
2018-06-08T10:14:20.013Z,99946.72
2018-06-08T10:16:48.875Z,99947.41
2018-06-08T10:19:17.577Z,99944.48
2018-06-08T10:21:46.297Z,99942.95
2018-06-08T10:24:14.981Z,99932.28
2018-06-08T10:26:43.881Z,99940.03
2018-06-08T10:29:12.606Z,99942.65
2018-06-08T10:31:41.298Z,99936.53
2018-06-08T10:34:09.974Z,99935.13
2018-06-08T10:36:38.698Z,99927.08
2018-06-08T10:39:08.197Z,99924.33
2018-06-08T10:41:36.914Z,99919.98
2018-06-08T10:44:05.649Z,99920.83
2018-06-08T10:46:34.368Z,99916.72
2018-06-08T10:49:03.106Z,99915.86
2018-06-08T10:51:31.836Z,99912.92
2018-06-08T10:54:00.542Z,99907.84
2018-06-08T10:56:29.247Z,99895.09
2018-06-08T10:58:57.994Z,99895.44
2018-06-08T11:01:26.693Z,99899.66
2018-06-08T11:03:55.710Z,99895.84
2018-06-08T11:06:24.433Z,99884.03
2018-06-08T11:08:53.121Z,99884.41
2018-06-08T11:11:21.825Z,99883.73
2018-06-08T11:13:50.554Z,99885.00
2018-06-08T11:16:19.269Z,99881.11
2018-06-08T11:18:47.970Z,99882.59
2018-06-08T11:21:16.745Z,99885.78
2018-06-08T11:23:45.441Z,99881.19
2018-06-08T11:26:14.166Z,99878.87
2018-06-08T11:28:42.969Z,99879.69
2018-06-08T11:31:12.273Z,99880.64
2018-06-08T11:33:40.974Z,99873.03
2018-06-08T11:36:09.717Z,99864.10
2018-06-08T11:38:38.404Z,99866.47
2018-06-08T11:41:07.097Z,99858.22
2018-06-08T11:43:35.897Z,99863.11
2018-06-08T11:46:04.834Z,99853.32
2018-06-08T11:48:33.527Z,99849.94
2018-06-08T11:51:02.269Z,99852.38
2018-06-08T11:53:30.952Z,99847.81
2018-06-08T11:55:59.730Z,99849.09
2018-06-08T11:58:28.442Z,99840.79
2018-06-08T12:00:57.137Z,99839.30
2018-06-08T12:03:25.825Z,99837.81
2018-06-08T12:05:54.540Z,99834.61
2018-06-08T12:08:23.213Z,99824.67
2018-06-08T12:10:51.903Z,99830.79
2018-06-08T12:13:20.609Z,99824.13
2018-06-08T12:15:49.332Z,99817.97
2018-06-08T12:18:18.183Z,99818.44
2018-06-08T12:20:47.070Z,99813.90
2018-06-08T12:23:15.755Z,99810.80
2018-06-08T12:25:44.445Z,99808.13
2018-06-08T12:28:13.183Z,99799.62
2018-06-08T12:30:41.926Z,99807.31
2018-06-08T12:33:10.651Z,99795.27
2018-06-08T12:35:39.590Z,99800.86
2018-06-08T12:38:08.347Z,99798.02
2018-06-08T12:40:37.057Z,99802.05
2018-06-08T12:43:05.773Z,99794.06
2018-06-08T12:45:34.485Z,99782.08
2018-06-08T12:48:03.234Z,99781.39
2018-06-08T12:50:31.977Z,99783.53
2018-06-08T12:53:00.686Z,99783.70
2018-06-08T12:55:29.388Z,99781.00
2018-06-08T12:57:58.169Z,99775.82
2018-06-08T13:00:26.889Z,99769.00
2018-06-08T13:02:55.638Z,99764.65
2018-06-08T13:05:24.445Z,99763.76
2018-06-08T13:07:53.191Z,99763.50
2018-06-08T13:10:21.927Z,99756.49
2018-06-08T13:12:50.687Z,99750.87
2018-06-08T13:15:19.421Z,99748.66
2018-06-08T13:17:48.305Z,99748.02
2018-06-08T13:20:17.178Z,99745.70
2018-06-08T13:22:45.973Z,99740.20
2018-06-08T13:25:14.715Z,99743.58
2018-06-08T13:27:43.478Z,99742.11
2018-06-08T13:30:12.202Z,99739.99
2018-06-08T13:32:41.349Z,99739.65
2018-06-08T13:35:10.086Z,99731.69
2018-06-08T13:37:38.849Z,99728.83
2018-06-08T13:40:07.743Z,99717.69
2018-06-08T13:42:36.534Z,99719.25
2018-06-08T13:45:05.676Z,99715.92
2018-06-08T13:47:34.573Z,99719.52
2018-06-08T13:50:03.358Z,99717.30
2018-06-08T13:52:32.064Z,99720.16
2018-06-08T13:55:00.796Z,99702.59
2018-06-08T13:57:29.666Z,99702.60
2018-06-08T13:59:58.547Z,99704.23
2018-06-08T14:02:27.274Z,99695.79
2018-06-08T14:04:56.034Z,99698.24
2018-06-08T14:07:24.745Z,99688.36
2018-06-08T14:09:53.590Z,99689.60
2018-06-08T14:12:22.322Z,99693.73
2018-06-08T14:14:51.032Z,99686.70
2018-06-08T14:17:19.737Z,99676.45
2018-06-08T14:19:48.543Z,99681.36
2018-06-08T14:22:17.445Z,99672.49
2018-06-08T14:24:46.173Z,99671.81
2018-06-08T14:27:16.063Z,99669.04
2018-06-08T14:29:44.781Z,99663.69
2018-06-08T14:32:13.470Z,99668.66
2018-06-08T14:34:42.349Z,99657.68
2018-06-08T14:37:11.083Z,99653.83
2018-06-08T14:39:39.827Z,99648.27
2018-06-08T14:42:08.598Z,99655.30
2018-06-08T14:44:37.316Z,99652.09
2018-06-08T14:47:06.029Z,99647.16
2018-06-08T14:49:35.894Z,99646.54
2018-06-08T14:52:04.617Z,99642.36
2018-06-08T14:54:33.304Z,99637.78
2018-06-08T14:57:02.042Z,99636.27
2018-06-08T14:59:30.742Z,99627.57
2018-06-08T15:01:59.593Z,99639.67
2018-06-08T15:04:28.522Z,99632.68
2018-06-08T15:06:57.236Z,99625.16
2018-06-08T15:09:25.952Z,99630.97
2018-06-08T15:11:54.688Z,99622.60
2018-06-08T15:14:23.406Z,99626.13
2018-06-08T15:16:52.141Z,99619.46
2018-06-08T15:19:20.910Z,99619.81
2018-06-08T15:21:49.677Z,99615.66
2018-06-08T15:24:18.576Z,99610.41
2018-06-08T15:26:47.482Z,99607.84
2018-06-08T15:29:16.205Z,99606.55
2018-06-08T15:31:44.945Z,99606.56
2018-06-08T15:34:13.681Z,99603.74
2018-06-08T15:36:42.385Z,99608.85
2018-06-08T15:39:11.089Z,99611.22
2018-06-08T15:41:39.829Z,99612.75
2018-06-08T15:44:08.517Z,99608.59
2018-06-08T15:46:37.213Z,99604.23
2018-06-08T15:49:05.966Z,99608.13
2018-06-08T15:51:34.669Z,99605.40
2018-06-08T15:54:03.378Z,99607.44
2018-06-08T15:56:32.154Z,99601.57
2018-06-08T15:59:01.026Z,99607.72
2018-06-08T16:01:29.745Z,99615.19
2018-06-08T16:03:58.479Z,99613.08
2018-06-08T16:06:27.189Z,99620.47
2018-06-08T16:08:55.899Z,99622.00
2018-06-08T16:11:24.640Z,99622.52
2018-06-08T16:13:53.353Z,99620.45
2018-06-08T16:16:22.055Z,99620.37
2018-06-08T16:18:50.807Z,99617.27
2018-06-08T16:21:19.500Z,99623.06
2018-06-08T16:23:48.245Z,99629.36
2018-06-08T16:26:17.006Z,99621.38
2018-06-08T16:28:45.750Z,99618.53
2018-06-08T16:31:14.529Z,99624.67
2018-06-08T16:33:43.248Z,99625.17
2018-06-08T16:36:11.998Z,99622.08
2018-06-08T16:38:40.682Z,99626.42
2018-06-08T16:41:09.421Z,99627.92
2018-06-08T16:43:38.170Z,99625.34
2018-06-08T16:46:06.894Z,99627.97
2018-06-08T16:48:35.633Z,99624.50
2018-06-08T16:51:04.337Z,99622.34
2018-06-08T16:53:33.351Z,99621.34
2018-06-08T16:56:02.118Z,99631.75
2018-06-08T16:58:30.818Z,99636.48
2018-06-08T17:00:59.532Z,99629.46
2018-06-08T17:03:28.284Z,99626.70
2018-06-08T17:05:57.117Z,99635.13
2018-06-08T17:08:25.837Z,99632.86
2018-06-08T17:10:54.577Z,99632.73
2018-06-08T17:13:23.294Z,99631.70
2018-06-08T17:15:52.002Z,99630.88
2018-06-08T17:18:20.762Z,99633.41
2018-06-08T17:20:49.477Z,99633.52
2018-06-08T17:23:18.205Z,99632.35
2018-06-08T17:25:46.952Z,99641.99
2018-06-08T17:28:15.652Z,99643.94
2018-06-08T17:30:44.353Z,99646.45
2018-06-08T17:33:13.089Z,99643.53
2018-06-08T17:35:41.785Z,99640.86
2018-06-08T17:38:10.512Z,99647.05
2018-06-08T17:40:39.335Z,99648.30
2018-06-08T17:43:08.039Z,99655.98
2018-06-08T17:45:36.779Z,99649.25
2018-06-08T17:48:05.762Z,99648.77
2018-06-08T17:50:34.497Z,99650.73
2018-06-08T17:53:03.238Z,99649.40
2018-06-08T17:55:32.046Z,99648.63
2018-06-08T17:58:00.882Z,99646.75
2018-06-08T18:00:29.578Z,99642.91
2018-06-08T18:02:58.369Z,99645.05
2018-06-08T18:05:27.139Z,99641.80
2018-06-08T18:07:55.865Z,99647.56
2018-06-08T18:10:24.615Z,99646.31
2018-06-08T18:12:53.417Z,99649.02
2018-06-08T18:15:22.152Z,99653.88
2018-06-08T18:17:50.992Z,99655.70
2018-06-08T18:20:19.692Z,99661.00
2018-06-08T18:22:48.558Z,99664.09
2018-06-08T18:25:18.095Z,99662.38
2018-06-08T18:27:46.842Z,99663.98
2018-06-08T18:30:15.540Z,99666.61
2018-06-08T18:32:44.793Z,99669.13
2018-06-08T18:35:13.669Z,99667.01
2018-06-08T18:37:42.510Z,99662.09
2018-06-08T18:40:11.288Z,99662.20
2018-06-08T18:42:39.982Z,99662.61
2018-06-08T18:45:08.695Z,99673.50
2018-06-08T18:47:37.553Z,99665.42
2018-06-08T18:50:06.248Z,99663.62
2018-06-08T18:52:35.110Z,99665.68
2018-06-08T18:55:03.885Z,99666.09
2018-06-08T18:57:32.606Z,99670.66
2018-06-08T19:00:01.335Z,99658.80
2018-06-08T19:02:30.385Z,99653.66
2018-06-08T19:04:59.097Z,99653.80
2018-06-08T19:07:27.827Z,99663.70
2018-06-08T19:09:56.602Z,99656.00
2018-06-08T19:12:25.319Z,99648.98
2018-06-08T19:14:54.034Z,99655.45
2018-06-08T19:17:22.757Z,99645.66
2018-06-08T19:19:51.518Z,99648.91
2018-06-08T19:22:20.226Z,99648.01
2018-06-08T19:24:49.043Z,99640.49
2018-06-08T19:27:17.770Z,99635.29
2018-06-08T19:29:46.537Z,99632.17
2018-06-08T19:32:15.280Z,99626.06
2018-06-08T19:34:44.121Z,99624.78
2018-06-08T19:37:12.963Z,99619.37
2018-06-08T19:39:41.736Z,99611.70
2018-06-08T19:42:10.439Z,99607.01
2018-06-08T19:44:39.134Z,99612.58
2018-06-08T19:47:07.882Z,99609.59
2018-06-08T19:49:36.573Z,99563.23
2018-06-08T19:52:05.655Z,99602.69
2018-06-08T19:54:34.441Z,99607.62
2018-06-08T19:57:03.178Z,99602.22
2018-06-08T19:59:31.911Z,99596.13
2018-06-08T20:02:00.690Z,99597.64
2018-06-08T20:04:29.445Z,99589.72
2018-06-08T20:06:58.261Z,99590.68
2018-06-08T20:09:27.009Z,99586.47
2018-06-08T20:12:07.671Z,99588.31
2018-06-08T20:14:36.568Z,99581.69
2018-06-08T20:17:05.294Z,99576.05
2018-06-08T20:19:34.015Z,99573.73
2018-06-08T20:22:02.789Z,99536.39
2018-06-08T20:24:31.514Z,99572.16
2018-06-08T20:27:00.289Z,99563.05
2018-06-08T20:29:29.061Z,99567.23
2018-06-08T20:31:57.832Z,99559.34
2018-06-08T20:34:26.614Z,99552.00
2018-06-08T20:36:55.390Z,99557.92
2018-06-08T20:39:24.121Z,99555.25
2018-06-08T20:41:52.930Z,99551.48
2018-06-08T20:44:21.702Z,99556.45
2018-06-08T20:46:50.634Z,99551.70
2018-06-08T20:49:19.455Z,99555.49
2018-06-08T20:51:48.238Z,99556.33
2018-06-08T20:54:17.003Z,99550.61
2018-06-08T20:56:45.793Z,99556.73
2018-06-08T20:59:14.730Z,99552.87
2018-06-08T21:01:43.488Z,99555.02
2018-06-08T21:04:12.247Z,99564.58
2018-06-08T21:06:41.032Z,99552.65
2018-06-08T21:09:10.043Z,99560.88
2018-06-08T21:11:38.809Z,99554.88
2018-06-08T21:14:07.631Z,99561.97
2018-06-08T21:16:36.412Z,99565.30
2018-06-08T21:19:05.161Z,99560.66
2018-06-08T21:21:33.920Z,99565.37
2018-06-08T21:24:02.642Z,99571.76
2018-06-08T21:26:31.365Z,99570.52
2018-06-08T21:29:00.140Z,99575.40
2018-06-08T21:31:28.983Z,99573.97
2018-06-08T21:33:57.741Z,99570.66
2018-06-08T21:36:26.657Z,99574.14
2018-06-08T21:38:55.408Z,99579.54
2018-06-08T21:41:24.211Z,99570.06
2018-06-08T21:43:52.978Z,99576.34
2018-06-08T21:46:21.727Z,99560.63
2018-06-08T21:48:50.510Z,99566.91
2018-06-08T21:51:19.263Z,99561.88
2018-06-08T21:53:47.999Z,99554.16
2018-06-08T21:56:17.502Z,99553.11
2018-06-08T21:58:46.284Z,99554.89
2018-06-08T22:01:15.138Z,99557.32
2018-06-08T22:03:43.870Z,99554.06
2018-06-08T22:06:12.718Z,99548.41
2018-06-08T22:08:41.493Z,99540.77
2018-06-08T22:11:10.387Z,99534.28
2018-06-08T22:13:39.233Z,99527.87
2018-06-08T22:16:08.086Z,99522.77
2018-06-08T22:18:36.923Z,99518.77
2018-06-08T22:21:05.734Z,99520.27
2018-06-08T22:23:34.541Z,99520.08
2018-06-08T22:26:03.384Z,99508.10
2018-06-08T22:28:32.141Z,99503.84
2018-06-08T22:31:00.976Z,99504.38
2018-06-08T22:33:29.739Z,99505.11
2018-06-08T22:35:58.622Z,99500.98
2018-06-08T22:38:27.407Z,99498.05
2018-06-08T22:40:56.233Z,99497.92
2018-06-08T22:43:25.151Z,99497.06
2018-06-08T22:45:53.928Z,99498.89
2018-06-08T22:48:22.633Z,99494.83
2018-06-08T22:50:51.350Z,99491.20
2018-06-08T22:53:20.054Z,99482.04
2018-06-08T22:55:48.766Z,99478.16
2018-06-08T22:58:17.493Z,99485.24
2018-06-08T23:00:46.186Z,99480.00
2018-06-08T23:03:14.904Z,99478.20
2018-06-08T23:05:43.646Z,99478.80
2018-06-08T23:08:12.353Z,99475.27
2018-06-08T23:10:41.086Z,99474.23
2018-06-08T23:13:09.822Z,99471.47
2018-06-08T23:15:38.531Z,99473.65
2018-06-08T23:18:07.238Z,99468.17
2018-06-08T23:20:35.965Z,99465.25
2018-06-08T23:23:04.727Z,99466.61
2018-06-08T23:25:33.453Z,99470.27
2018-06-08T23:28:02.316Z,99463.06
2018-06-08T23:30:31.042Z,99461.32
2018-06-08T23:32:59.799Z,99462.03
2018-06-08T23:35:28.567Z,99463.58
2018-06-08T23:37:57.322Z,99462.45
2018-06-08T23:40:26.065Z,99448.80
2018-06-08T23:42:59.237Z,99454.19
2018-06-08T23:45:27.945Z,99453.94
2018-06-08T23:47:56.736Z,99453.78
2018-06-08T23:50:25.420Z,99447.26
2018-06-08T23:52:54.115Z,99448.09
2018-06-08T23:55:23.081Z,99449.80
2018-06-08T23:57:51.826Z,99443.64
